Time;durP1;ratioP1;P1;durP2;ratioP2;P2;SDS_P1;SDS_P2;PMS_P1;PMS_P2;Temp;Humidity;BMP_temperature;BMP_pressure;BME280_temperature;BME280_humidity;BME280_pressure;Samples;Min_cycle;Max_cycle;Signal;HPM_P1;HPM_P2
2021/06/04 00:01:24;;;;;;;6.45;4.68;;;;;;;17.49;55.48;101189.44;4970225;28;20058;-78
2021/06/04 00:03:51;;;;;;;6.07;4.03;;;;;;;17.41;54.99;101193.22;4990801;28;20062;-77
2021/06/04 00:06:17;;;;;;;5.47;3.90;;;;;;;17.35;55.38;101193.38;4992927;28;20073;-78
2021/06/04 00:08:43;;;;;;;5.50;3.85;;;;;;;17.24;55.65;101191.84;4989353;28;20129;-78
2021/06/04 00:11:15;;;;;;;5.93;3.70;;;;;;;17.12;55.96;101180.56;4988065;28;20042;-77
2021/06/04 00:14:02;;;;;;;8.25;3.85;;;;;;;17.00;56.58;101171.94;4951005;28;20039;-77
2021/06/04 00:16:34;;;;;;;5.43;4.00;;;;;;;16.89;57.05;101179.28;4967922;28;20684;-78
2021/06/04 00:19:02;;;;;;;5.65;3.70;;;;;;;16.78;56.71;101178.66;4986358;28;20035;-77
2021/06/04 00:21:39;;;;;;;6.65;4.00;;;;;;;16.69;57.47;101170.81;4954962;28;20058;-77
2021/06/04 00:24:08;;;;;;;6.18;4.35;;;;;;;16.62;56.87;101170.94;4988874;28;20041;-77
2021/06/04 00:26:35;;;;;;;5.32;4.03;;;;;;;16.56;57.23;101180.88;4986226;28;20038;-77
2021/06/04 00:29:01;;;;;;;5.55;4.03;;;;;;;16.50;57.36;101186.28;4966994;28;20098;-77
2021/06/04 00:31:27;;;;;;;6.32;3.95;;;;;;;16.43;57.26;101188.22;4986640;28;20046;-77
2021/06/04 00:33:52;;;;;;;8.80;4.25;;;;;;;16.35;57.75;101187.50;4988151;28;20038;-77
2021/06/04 00:36:18;;;;;;;7.22;4.05;;;;;;;16.27;57.75;101194.75;4988485;28;20380;-78
2021/06/04 00:38:44;;;;;;;5.00;3.50;;;;;;;16.20;58.28;101194.00;4987911;28;20545;-77
2021/06/04 00:41:17;;;;;;;6.38;3.88;;;;;;;16.12;58.68;101198.59;4954188;28;20476;-76
2021/06/04 00:43:43;;;;;;;6.40;3.85;;;;;;;16.06;58.70;101206.66;4980908;28;20027;-77
2021/06/04 00:46:09;;;;;;;6.60;4.07;;;;;;;16.00;59.11;101199.66;4966843;28;20062;-76
2021/06/04 00:48:37;;;;;;;4.88;3.92;;;;;;;15.95;59.05;101198.88;4947085;28;20479;-77
2021/06/04 00:51:16;;;;;;;5.47;4.25;;;;;;;15.88;59.35;101192.78;4985295;28;20026;-77
2021/06/04 00:53:44;;;;;;;5.80;3.88;;;;;;;15.80;59.13;101197.38;4967966;28;20038;-76
2021/06/04 00:56:16;;;;;;;8.07;4.20;;;;;;;15.72;59.17;101200.16;4938761;28;20038;-76
2021/06/04 00:58:45;;;;;;;6.18;4.45;;;;;;;15.67;59.78;101196.66;4951403;28;20062;-76
2021/06/04 01:01:14;;;;;;;5.25;4.13;;;;;;;15.60;59.65;101192.34;4968535;28;20041;-77
2021/06/04 01:03:44;;;;;;;6.43;4.60;;;;;;;15.55;60.46;101194.19;4949514;28;20118;-77
2021/06/04 01:06:41;;;;;;;5.40;4.10;;;;;;;15.47;61.03;101190.78;4986812;28;20039;-78
2021/06/04 01:09:29;;;;;;;6.88;4.85;;;;;;;15.42;61.49;101192.63;4925680;28;20043;-77
2021/06/04 01:12:25;;;;;;;7.88;4.60;;;;;;;15.38;61.57;101199.81;4949076;28;20074;-77
2021/06/04 01:15:07;;;;;;;5.90;4.38;;;;;;;15.41;60.55;101194.44;4948723;28;20473;-76
2021/06/04 01:17:46;;;;;;;5.50;4.10;;;;;;;15.45;60.72;101201.44;4964256;28;20045;-77
2021/06/04 01:20:28;;;;;;;6.97;4.45;;;;;;;15.48;61.00;101190.78;4981741;28;20542;-77
2021/06/04 01:23:17;;;;;;;5.03;3.92;;;;;;;15.57;60.61;101197.72;4981104;28;20050;-77
2021/06/04 01:25:50;;;;;;;7.32;3.97;;;;;;;15.60;61.12;101197.66;4977793;28;20445;-76
2021/06/04 01:28:39;;;;;;;6.40;4.18;;;;;;;15.66;60.97;101200.22;4981502;28;20035;-77
2021/06/04 01:31:04;;;;;;;6.68;3.92;;;;;;;15.74;60.45;101189.47;4966873;28;20030;-77
2021/06/04 01:33:42;;;;;;;5.25;3.97;;;;;;;15.80;60.78;101193.81;4982843;28;20034;-77
2021/06/04 01:36:08;;;;;;;9.02;4.30;;;;;;;15.83;60.48;101183.13;4981812;28;20038;-77
2021/06/04 01:38:41;;;;;;;9.63;4.72;;;;;;;15.86;60.54;101188.41;4962186;28;20045;-77
2021/06/04 01:41:11;;;;;;;6.93;4.75;;;;;;;15.92;60.43;101188.28;4980660;28;20030;-77
2021/06/04 01:43:47;;;;;;;5.95;4.70;;;;;;;15.99;60.43;101181.94;4965080;28;20061;-77
2021/06/04 01:46:22;;;;;;;7.22;3.92;;;;;;;16.04;60.30;101182.75;4983059;28;20038;-77
2021/06/04 01:48:50;;;;;;;5.90;4.20;;;;;;;16.10;60.04;101184.41;4963036;28;20098;-76
2021/06/04 01:51:22;;;;;;;8.43;4.35;;;;;;;16.15;60.01;101186.09;4964268;28;20117;-76
2021/06/04 01:53:57;;;;;;;5.25;4.13;;;;;;;16.16;60.01;101185.16;4948469;28;20400;-77
2021/06/04 01:56:33;;;;;;;6.15;5.15;;;;;;;16.21;60.10;101180.63;4982072;28;20053;-76
2021/06/04 01:59:05;;;;;;;7.18;4.10;;;;;;;16.28;59.66;101193.84;4965449;28;20026;-77
2021/06/04 02:01:38;;;;;;;7.70;4.45;;;;;;;16.31;59.52;101188.47;4979707;28;20403;-76
2021/06/04 02:04:09;;;;;;;6.18;4.60;;;;;;;16.36;59.31;101189.25;4948141;28;20031;-76
2021/06/04 02:06:45;;;;;;;6.65;4.57;;;;;;;16.40;59.32;101190.91;4957632;28;20497;-77
2021/06/04 02:09:14;;;;;;;5.82;4.30;;;;;;;16.42;59.37;101184.66;4962189;28;20035;-77
2021/06/04 02:11:48;;;;;;;6.55;4.13;;;;;;;16.48;59.21;101183.69;4961437;28;20031;-77
2021/06/04 02:14:34;;;;;;;5.78;4.40;;;;;;;16.51;59.29;101180.94;4952079;28;20110;-77
2021/06/04 02:17:24;;;;;;;5.80;4.40;;;;;;;16.56;59.09;101180.88;4982029;28;20037;-77
2021/06/04 02:19:56;;;;;;;7.70;4.55;;;;;;;16.60;59.32;101178.09;4956346;28;20414;-77
2021/06/04 02:22:50;;;;;;;7.15;4.15;;;;;;;16.64;59.04;101178.91;4963470;28;20521;-77
2021/06/04 02:25:39;;;;;;;6.97;4.88;;;;;;;16.66;59.11;101179.72;4948213;28;20036;-77
2021/06/04 02:28:23;;;;;;;7.05;4.28;;;;;;;16.69;59.10;101179.69;4983362;28;20042;-77
2021/06/04 02:31:09;;;;;;;6.95;4.22;;;;;;;16.71;59.22;101175.19;4946714;28;20034;-77
2021/06/04 02:33:41;;;;;;;7.53;4.47;;;;;;;16.73;58.62;101177.84;4983021;28;20034;-77
2021/06/04 02:36:21;;;;;;;7.13;4.50;;;;;;;16.78;58.61;101178.66;4945071;28;20035;-77
2021/06/04 02:38:54;;;;;;;6.47;4.30;;;;;;;16.85;58.36;101181.16;4945780;28;20035;-77
2021/06/04 02:41:29;;;;;;;7.88;4.85;;;;;;;16.86;58.44;101177.56;4963981;28;20080;-76
2021/06/04 02:44:07;;;;;;;5.80;4.97;;;;;;;16.92;58.02;101175.69;4961447;28;20507;-77
2021/06/04 02:46:36;;;;;;;7.65;4.95;;;;;;;16.96;57.79;101177.38;4977685;28;20532;-77
2021/06/04 02:49:07;;;;;;;5.82;4.43;;;;;;;16.99;57.95;101177.31;4964521;28;20138;-76
2021/06/04 02:51:37;;;;;;;6.47;4.43;;;;;;;17.01;57.71;101167.47;4965181;28;20061;-77
2021/06/04 02:54:15;;;;;;;5.95;5.15;;;;;;;17.02;57.87;101172.75;4979524;28;20042;-77
2021/06/04 02:56:54;;;;;;;5.75;4.20;;;;;;;17.04;57.51;101162.94;4940806;28;20035;-77
2021/06/04 02:59:25;;;;;;;5.15;4.10;;;;;;;17.07;57.56;101173.53;4946679;28;20027;-76
2021/06/04 03:01:57;;;;;;;8.63;4.80;;;;;;;17.07;57.22;101168.22;4984945;28;20085;-76
2021/06/04 03:04:25;;;;;;;6.55;4.40;;;;;;;17.06;57.40;101170.94;4989345;28;20719;-77
2021/06/04 03:06:55;;;;;;;5.85;4.80;;;;;;;17.07;57.67;101164.66;4990439;28;20038;-77
2021/06/04 03:09:36;;;;;;;6.45;4.40;;;;;;;17.09;57.30;101168.19;4970215;28;20027;-76
2021/06/04 03:12:20;;;;;;;8.20;5.30;;;;;;;17.12;57.27;101156.56;4951601;28;20059;-77
2021/06/04 03:14:48;;;;;;;6.70;4.68;;;;;;;17.12;57.58;101159.22;4972478;28;20041;-77
2021/06/04 03:17:17;;;;;;;18.02;12.98;;;;;;;17.15;57.56;101160.03;4957583;28;20046;-76
2021/06/04 03:19:43;;;;;;;14.45;12.50;;;;;;;17.24;57.71;101164.28;4970246;28;20398;-77
2021/06/04 03:22:15;;;;;;;17.67;13.45;;;;;;;17.27;57.36;101164.22;4971441;28;20424;-77
2021/06/04 03:24:44;;;;;;;14.35;11.35;;;;;;;17.26;57.42;101170.44;4966932;28;20074;-76
2021/06/04 03:27:16;;;;;;;11.10;9.68;;;;;;;17.24;57.29;101166.97;4990028;28;20034;-76
2021/06/04 03:29:45;;;;;;;;;;;;;;;17.25;57.90;101168.69;4973046;28;20027;-77
2021/06/04 03:32:12;;;;;;;13.90;11.70;;;;;;;17.38;56.88;101169.28;4992378;28;19921;-77
2021/06/04 03:34:42;;;;;;;12.88;11.57;;;;;;;17.46;56.36;101164.63;4958117;28;20023;-77
2021/06/04 03:37:09;;;;;;;13.63;10.82;;;;;;;17.52;56.25;101154.66;4955837;28;20527;-77
2021/06/04 03:39:40;;;;;;;12.80;10.75;;;;;;;17.56;56.33;101151.94;4955303;28;20054;-77
2021/06/04 03:42:10;;;;;;;16.42;12.52;;;;;;;17.61;56.25;101152.72;4956188;28;20034;-77
2021/06/04 03:44:38;;;;;;;15.32;11.07;;;;;;;17.65;56.20;101151.69;4967550;28;20035;-77
2021/06/04 03:47:05;;;;;;;13.45;12.05;;;;;;;17.65;55.93;101155.25;4984285;28;20039;-77
2021/06/04 03:49:34;;;;;;;13.40;11.30;;;;;;;17.68;55.67;101159.63;4973034;28;20477;-77
2021/06/04 03:52:00;;;;;;;13.68;11.27;;;;;;;17.71;55.64;101162.22;4969833;28;20073;-77
2021/06/04 03:54:31;;;;;;;13.27;11.88;;;;;;;17.77;55.83;101164.75;4974176;28;20035;-78
2021/06/04 03:56:58;;;;;;;15.77;9.70;;;;;;;17.81;55.08;101166.44;4969610;28;20043;-77
2021/06/04 03:59:24;;;;;;;11.52;10.32;;;;;;;17.84;55.16;101160.13;4991572;28;20288;-78
2021/06/04 04:01:57;;;;;;;12.75;9.90;;;;;;;17.89;55.08;101167.13;4959630;28;20034;-78
2021/06/04 04:04:23;;;;;;;11.25;9.93;;;;;;;17.93;55.03;101170.59;4990593;28;20031;-78
2021/06/04 04:06:49;;;;;;;13.20;11.10;;;;;;;17.95;54.40;101172.31;4973624;28;20086;-77
2021/06/04 04:09:15;;;;;;;12.65;10.50;;;;;;;18.00;54.75;101165.94;4952990;28;20031;-78
2021/06/04 04:11:43;;;;;;;11.75;10.55;;;;;;;18.04;54.61;101172.97;4991584;28;20129;-79
2021/06/04 04:14:09;;;;;;;13.05;11.80;;;;;;;18.05;54.68;101172.94;4987919;28;20087;-76
2021/06/04 04:16:35;;;;;;;12.88;11.10;;;;;;;18.05;54.54;101175.63;4965338;28;20038;-77
2021/06/04 04:19:01;;;;;;;10.13;9.13;;;;;;;18.06;54.71;101176.50;4973404;28;20045;-78
2021/06/04 04:21:27;;;;;;;14.20;11.02;;;;;;;18.09;54.76;101165.72;4990306;28;20070;-77
2021/06/04 04:23:57;;;;;;;11.57;10.27;;;;;;;18.10;54.43;101165.69;4989501;28;20042;-77
2021/06/04 04:26:28;;;;;;;12.07;10.30;;;;;;;18.11;54.46;101163.88;4987674;28;20563;-77
2021/06/04 04:28:54;;;;;;;12.23;11.03;;;;;;;18.11;54.58;101169.22;4966183;28;20475;-77
2021/06/04 04:31:27;;;;;;;11.13;9.23;;;;;;;18.11;54.45;101153.19;4986896;28;20089;-77
2021/06/04 04:33:54;;;;;;;12.85;11.25;;;;;;;18.09;54.63;101161.25;4949704;28;20027;-78
2021/06/04 04:36:23;;;;;;;14.05;12.45;;;;;;;18.08;54.68;101158.63;4984155;28;20042;-78
2021/06/04 04:38:48;;;;;;;12.60;11.32;;;;;;;18.07;54.77;101157.72;4988345;28;20042;-78
2021/06/04 04:41:15;;;;;;;13.50;11.65;;;;;;;18.11;54.76;101159.41;4973911;28;20402;-78
2021/06/04 04:43:46;;;;;;;12.05;10.85;;;;;;;18.13;54.75;101156.69;4988151;28;20578;-77
2021/06/04 04:46:15;;;;;;;11.90;10.13;;;;;;;18.11;54.67;101150.53;4985299;28;20499;-77
2021/06/04 04:48:40;;;;;;;14.80;12.40;;;;;;;18.11;54.67;101146.06;4968604;28;20064;-78
2021/06/04 04:51:07;;;;;;;12.63;11.30;;;;;;;18.12;54.60;101150.47;4990293;28;20038;-78
2021/06/04 04:53:35;;;;;;;13.13;8.60;;;;;;;18.16;54.42;101153.94;4988044;28;20038;-77
2021/06/04 04:56:00;;;;;;;12.63;9.80;;;;;;;18.17;54.77;101153.91;4968666;28;20062;-77
2021/06/04 04:58:26;;;;;;;12.32;10.93;;;;;;;18.19;54.77;101156.53;4965703;28;20103;-78
2021/06/04 05:00:52;;;;;;;15.13;10.88;;;;;;;18.19;54.77;101161.88;4969944;28;20030;-77
2021/06/04 05:03:20;;;;;;;17.00;12.20;;;;;;;18.22;54.60;101153.78;4984757;28;20037;-78
2021/06/04 05:05:46;;;;;;;15.70;12.73;;;;;;;18.26;54.37;101160.78;4974615;28;20479;-78
2021/06/04 05:08:12;;;;;;;18.98;13.68;;;;;;;18.27;54.68;101159.88;4988673;28;20070;-78
2021/06/04 05:10:37;;;;;;;17.63;11.77;;;;;;;18.31;54.53;101164.22;4972312;28;20450;-77
2021/06/04 05:13:06;;;;;;;19.63;13.23;;;;;;;18.33;54.51;101157.00;4988046;28;20060;-77
2021/06/04 05:15:34;;;;;;;12.70;11.32;;;;;;;18.38;54.61;101163.09;4960589;28;20402;-78
2021/06/04 05:17:59;;;;;;;12.55;10.75;;;;;;;18.39;54.48;101154.19;4965803;28;20085;-77
2021/06/04 05:20:26;;;;;;;10.00;8.73;;;;;;;18.42;54.66;101163.00;4987974;28;20082;-77
2021/06/04 05:22:52;;;;;;;9.38;8.23;;;;;;;18.42;54.74;101161.25;4968357;28;20545;-77
2021/06/04 05:25:22;;;;;;;11.15;8.50;;;;;;;18.48;54.76;101157.50;4986528;28;20553;-77
2021/06/04 05:27:50;;;;;;;12.52;8.75;;;;;;;18.51;54.57;101157.41;4975122;28;20034;-77
2021/06/04 05:30:27;;;;;;;13.70;11.45;;;;;;;18.55;54.96;101151.94;4972540;28;20053;-78
2021/06/04 05:32:54;;;;;;;16.95;11.57;;;;;;;18.66;54.68;101156.97;4989814;28;20117;-77
2021/06/04 05:35:20;;;;;;;14.77;9.27;;;;;;;18.70;54.37;101161.28;4988763;28;20094;-78
2021/06/04 05:37:46;;;;;;;12.40;9.23;;;;;;;18.75;54.55;101163.84;4988837;28;20026;-77
2021/06/04 05:40:17;;;;;;;14.70;12.13;;;;;;;18.80;54.46;101161.94;4969414;28;20033;-78
2021/06/04 05:42:43;;;;;;;11.77;10.10;;;;;;;18.90;53.96;101168.75;4986864;28;20058;-77
2021/06/04 05:45:10;;;;;;;11.45;10.07;;;;;;;19.00;53.95;101170.22;4967911;28;20089;-77
2021/06/04 05:47:35;;;;;;;9.73;8.73;;;;;;;19.03;54.08;101179.94;4957426;28;20034;-77
2021/06/04 05:50:01;;;;;;;13.18;9.50;;;;;;;19.07;53.88;101170.88;4987706;28;20413;-78
2021/06/04 05:52:26;;;;;;;10.65;7.50;;;;;;;19.12;54.41;101176.09;4987784;28;20034;-78
2021/06/04 05:54:52;;;;;;;8.65;6.80;;;;;;;19.19;53.93;101172.31;4962044;28;20035;-78
2021/06/04 05:57:18;;;;;;;10.20;7.90;;;;;;;19.25;53.51;101178.34;4968842;28;20518;-77
2021/06/04 05:59:43;;;;;;;10.40;8.30;;;;;;;19.29;53.74;101172.91;4990130;28;20027;-77
2021/06/04 06:02:10;;;;;;;9.43;8.15;;;;;;;19.36;53.79;101172.66;4984953;28;20049;-77
2021/06/04 06:04:36;;;;;;;10.10;7.40;;;;;;;19.38;53.52;101173.47;4990524;28;20486;-77
2021/06/04 06:07:02;;;;;;;11.02;9.93;;;;;;;19.40;53.85;101176.09;4985700;28;20036;-77
2021/06/04 06:09:27;;;;;;;8.63;7.82;;;;;;;19.46;53.72;101189.28;4986290;28;20517;-77
2021/06/04 06:11:52;;;;;;;12.30;10.93;;;;;;;19.54;53.65;101186.34;4985267;28;20046;-77
2021/06/04 06:14:18;;;;;;;9.35;7.57;;;;;;;19.64;53.66;101186.00;4951074;28;20462;-77
2021/06/04 06:16:46;;;;;;;16.65;11.00;;;;;;;19.76;53.33;101184.75;4986307;28;20117;-77
2021/06/04 06:19:14;;;;;;;9.27;7.82;;;;;;;19.92;53.18;101190.47;4984998;28;20118;-77
2021/06/04 06:21:43;;;;;;;11.60;9.52;;;;;;;20.04;53.24;101189.16;4950476;28;20041;-77
2021/06/04 06:24:09;;;;;;;9.32;8.30;;;;;;;20.15;52.65;101178.94;4985388;28;20053;-78
2021/06/04 06:26:36;;;;;;;12.20;9.10;;;;;;;20.26;52.01;101179.44;4984417;28;20042;-77
2021/06/04 06:29:04;;;;;;;10.55;9.55;;;;;;;20.42;51.33;101182.41;4983789;28;20034;-77
2021/06/04 06:31:33;;;;;;;11.20;8.95;;;;;;;20.54;50.83;101178.44;4984930;28;20533;-77
2021/06/04 06:34:00;;;;;;;10.88;9.75;;;;;;;20.60;50.33;101188.09;4946857;28;20035;-77
2021/06/04 06:36:30;;;;;;;12.02;9.25;;;;;;;20.77;50.46;101188.28;4984121;28;20054;-77
2021/06/04 06:39:07;;;;;;;9.70;8.80;;;;;;;21.01;49.82;101182.00;4984127;28;20038;-77
2021/06/04 06:41:32;;;;;;;11.20;7.90;;;;;;;21.07;49.40;101175.50;4983955;28;20037;-77
2021/06/04 06:43:57;;;;;;;9.88;7.85;;;;;;;21.09;49.19;101180.81;4966469;28;20023;-77
2021/06/04 06:46:25;;;;;;;9.73;8.27;;;;;;;21.17;50.05;101181.41;4968616;28;20058;-77
2021/06/04 06:48:51;;;;;;;10.15;7.93;;;;;;;21.32;49.46;101179.88;4953570;28;20034;-77
2021/06/04 06:51:18;;;;;;;10.98;8.20;;;;;;;21.39;49.02;101179.59;4964031;28;20505;-77
2021/06/04 06:53:43;;;;;;;8.82;7.45;;;;;;;21.53;48.58;101175.47;4973598;28;20042;-77
2021/06/04 06:56:11;;;;;;;10.00;7.22;;;;;;;21.66;49.14;101176.72;4975681;28;20125;-77
2021/06/04 06:58:37;;;;;;;11.10;8.18;;;;;;;21.80;48.06;101178.84;4991590;28;20042;-77
2021/06/04 07:01:05;;;;;;;14.00;11.73;;;;;;;21.78;48.17;101181.56;4993063;28;20047;-77
2021/06/04 07:03:32;;;;;;;9.60;8.60;;;;;;;21.96;48.01;101189.81;4954384;28;20129;-77
2021/06/04 07:06:01;;;;;;;11.10;10.00;;;;;;;22.14;47.91;101180.94;4986382;28;20089;-78
2021/06/04 07:08:27;;;;;;;11.75;8.90;;;;;;;22.39;47.37;101186.09;4986014;28;20046;-77
2021/06/04 07:10:52;;;;;;;8.70;5.80;;;;;;;22.60;46.37;101178.88;4983763;28;20395;-78
2021/06/04 07:13:26;;;;;;;9.52;8.07;;;;;;;22.66;46.81;101184.00;4985280;28;20458;-77
2021/06/04 07:15:57;;;;;;;8.30;5.55;;;;;;;22.70;46.71;101184.72;4986410;28;20042;-77
2021/06/04 07:18:22;;;;;;;8.32;6.70;;;;;;;22.73;46.54;101185.44;4953093;28;20039;-77
2021/06/04 07:20:48;;;;;;;10.15;8.50;;;;;;;22.89;46.92;101184.72;4983560;28;20034;-77
2021/06/04 07:23:15;;;;;;;8.45;7.10;;;;;;;23.16;46.66;101180.75;4985341;28;20379;-78
2021/06/04 07:25:45;;;;;;;8.00;6.40;;;;;;;23.38;46.10;101190.47;4984118;28;20107;-77
2021/06/04 07:28:12;;;;;;;8.98;8.07;;;;;;;23.58;45.42;101184.97;4982689;28;20042;-77
2021/06/04 07:30:42;;;;;;;6.32;5.07;;;;;;;23.63;44.18;101185.63;4984787;28;20113;-77
2021/06/04 07:33:19;;;;;;;8.07;7.25;;;;;;;23.55;44.86;101187.84;4985393;28;20077;-77
2021/06/04 07:35:46;;;;;;;10.20;9.00;;;;;;;23.58;44.49;101184.13;4984690;28;20034;-77
2021/06/04 07:38:11;;;;;;;9.43;5.63;;;;;;;23.70;44.92;101182.59;4982435;28;20325;-78
2021/06/04 07:40:38;;;;;;;6.30;4.50;;;;;;;23.72;44.66;101180.75;4983964;28;20173;-77
2021/06/04 07:43:07;;;;;;;6.47;4.70;;;;;;;23.73;44.28;101179.78;4962206;28;20074;-77
2021/06/04 07:45:34;;;;;;;6.72;4.50;;;;;;;23.79;43.97;101191.16;4967154;28;20169;-77
2021/06/04 07:48:00;;;;;;;8.32;5.43;;;;;;;23.95;44.26;101185.84;4984351;28;20050;-78
2021/06/04 07:50:26;;;;;;;7.15;5.30;;;;;;;24.09;43.43;101184.25;4957038;28;20439;-77
2021/06/04 07:52:52;;;;;;;9.18;6.43;;;;;;;24.12;43.54;101187.63;4987457;28;20030;-77
2021/06/04 07:55:18;;;;;;;7.50;4.70;;;;;;;24.09;43.61;101182.41;4986780;28;20471;-77
2021/06/04 07:57:44;;;;;;;7.28;4.45;;;;;;;24.01;43.72;101187.34;4988644;28;20029;-77
2021/06/04 08:00:18;;;;;;;7.70;4.85;;;;;;;24.06;43.54;101188.84;4954827;28;20081;-76
2021/06/04 08:02:43;;;;;;;8.02;5.28;;;;;;;24.15;43.91;101181.22;4966098;28;20129;-77
2021/06/04 08:05:10;;;;;;;7.38;6.07;;;;;;;24.33;43.44;101182.94;4988142;28;20074;-77
2021/06/04 08:07:35;;;;;;;7.18;6.43;;;;;;;24.62;43.29;101180.53;4988067;28;20042;-78
2021/06/04 08:10:00;;;;;;;7.75;5.55;;;;;;;24.97;42.55;101180.38;4965959;28;20035;-78
2021/06/04 08:12:30;;;;;;;7.10;6.40;;;;;;;25.27;42.24;101170.59;4988400;28;20042;-78
2021/06/04 08:15:01;;;;;;;8.48;7.57;;;;;;;25.56;41.90;101168.88;4949443;29;20043;-77
2021/06/04 08:17:28;;;;;;;9.27;6.43;;;;;;;25.67;41.47;101173.66;4968404;28;20043;-78
2021/06/04 08:19:54;;;;;;;7.78;5.85;;;;;;;25.73;41.94;101170.63;4987436;28;20031;-78
2021/06/04 08:22:19;;;;;;;8.05;7.00;;;;;;;26.06;41.31;101176.81;4950019;28;20042;-78
2021/06/04 08:24:45;;;;;;;8.52;5.40;;;;;;;26.32;40.85;101177.91;4986921;28;20046;-78
2021/06/04 08:27:14;;;;;;;9.20;6.63;;;;;;;26.65;40.20;101178.53;4969787;28;20042;-78
2021/06/04 08:29:40;;;;;;;11.05;5.68;;;;;;;26.74;39.63;101173.50;4954443;28;20044;-78
2021/06/04 08:32:06;;;;;;;8.68;5.28;;;;;;;26.71;39.22;101171.00;4987726;28;20039;-78
2021/06/04 08:34:31;;;;;;;8.50;5.35;;;;;;;26.91;40.00;101175.13;4986510;28;20037;-78
2021/06/04 08:36:57;;;;;;;7.05;4.70;;;;;;;26.96;39.66;101178.41;4988741;28;20484;-78
2021/06/04 08:39:29;;;;;;;10.65;5.93;;;;;;;26.87;39.20;101174.47;4955831;28;20041;-78
2021/06/04 08:42:21;;;;;;;6.85;5.20;;;;;;;26.85;38.92;101170.97;4984050;28;20047;-78
2021/06/04 08:45:25;;;;;;;7.72;5.45;;;;;;;26.95;38.71;101174.84;4984178;28;20689;-78
2021/06/04 08:47:57;;;;;;;5.15;4.00;;;;;;;27.00;38.81;101170.00;4988743;28;20552;-78
2021/06/04 08:50:37;;;;;;;8.90;6.28;;;;;;;27.27;39.15;101171.88;4988336;28;20117;-78
2021/06/04 08:53:13;;;;;;;5.80;5.20;;;;;;;27.39;38.81;101171.09;4987828;28;20558;-78
2021/06/04 08:55:44;;;;;;;9.85;5.15;;;;;;;27.17;38.04;101168.00;4983204;28;20038;-78
2021/06/04 08:58:35;;;;;;;7.90;5.10;;;;;;;27.20;37.96;101176.00;4985727;28;20046;-78
2021/06/04 09:01:14;;;;;;;7.57;5.70;;;;;;;27.21;38.19;101172.31;4970317;28;20034;-78
2021/06/04 09:03:45;;;;;;;6.32;5.20;;;;;;;27.21;38.23;101166.88;4968245;28;20078;-78
2021/06/04 09:06:21;;;;;;;6.88;4.55;;;;;;;27.11;37.93;101172.00;4969644;28;20049;-78
2021/06/04 09:08:47;;;;;;;5.78;4.18;;;;;;;26.92;37.03;101180.44;4965968;28;20086;-78
2021/06/04 09:11:22;;;;;;;5.50;4.40;;;;;;;26.96;37.46;101184.72;4986910;28;20038;-78
2021/06/04 09:13:47;;;;;;;5.60;3.92;;;;;;;26.98;37.75;101180.03;4985274;28;20038;-78
2021/06/04 09:16:47;;;;;;;7.53;6.25;;;;;;;27.15;37.98;101178.09;4969298;28;20030;-77
2021/06/04 09:19:43;;;;;;;9.77;8.63;;;;;;;27.58;38.04;101180.69;4956647;28;20137;-78
2021/06/04 09:22:09;;;;;;;10.23;9.23;;;;;;;27.81;36.91;101171.91;4954470;28;20037;-78
2021/06/04 09:24:47;;;;;;;7.90;6.40;;;;;;;28.03;36.51;101175.84;4984792;28;20093;-78
2021/06/04 09:27:22;;;;;;;5.45;3.80;;;;;;;28.11;36.27;101179.78;4968715;28;20081;-78
2021/06/04 09:30:09;;;;;;;9.43;6.72;;;;;;;28.22;36.57;101170.88;4953632;28;20073;-78
2021/06/04 09:32:36;;;;;;;10.35;8.68;;;;;;;28.36;36.38;101173.47;4983746;28;20042;-78
2021/06/04 09:35:31;;;;;;;11.55;9.70;;;;;;;28.62;35.50;101170.78;4964468;28;20039;-78
2021/06/04 09:38:14;;;;;;;6.88;6.18;;;;;;;28.80;35.81;101166.75;4969257;28;20050;-78
2021/06/04 09:40:41;;;;;;;10.40;9.30;;;;;;;28.90;36.38;101166.03;4969391;28;20118;-78
2021/06/04 09:43:14;;;;;;;10.40;8.82;;;;;;;28.86;36.00;101170.84;4986137;28;20034;-78
2021/06/04 09:45:52;;;;;;;7.40;6.70;;;;;;;28.91;36.48;101171.38;4981362;28;20035;-78
2021/06/04 09:48:35;;;;;;;10.75;8.75;;;;;;;29.00;36.75;101158.97;4966951;28;20062;-78
2021/06/04 09:51:22;;;;;;;7.35;4.45;;;;;;;28.71;36.33;101164.66;4967022;28;20039;-78
2021/06/04 09:53:48;;;;;;;8.00;4.72;;;;;;;28.47;37.03;101163.75;4984228;28;20070;-78
2021/06/04 09:56:27;;;;;;;5.25;3.35;;;;;;;28.35;37.28;101165.47;4985605;28;20070;-78
2021/06/04 09:59:05;;;;;;;8.98;7.35;;;;;;;28.30;37.93;101164.91;4981116;28;20070;-78
2021/06/04 10:01:41;;;;;;;5.97;4.03;;;;;;;28.30;38.10;101163.06;4982023;28;20041;-77
2021/06/04 10:04:15;;;;;;;6.75;5.13;;;;;;;28.03;37.85;101167.69;4967964;28;20130;-79
2021/06/04 10:06:44;;;;;;;8.05;4.90;;;;;;;28.12;37.80;101157.09;4985787;28;20053;-78
2021/06/04 10:09:22;;;;;;;6.35;3.85;;;;;;;28.14;36.82;101157.00;4981192;28;20038;-78
2021/06/04 10:12:07;;;;;;;7.78;5.20;;;;;;;28.07;37.61;101166.53;4952897;28;20034;-76
2021/06/04 10:15:02;;;;;;;7.55;5.25;;;;;;;27.74;36.48;101165.97;4986181;28;20037;-77
2021/06/04 10:20:27;;;;;;;6.55;4.07;;;;;;;27.05;36.46;101162.44;4981252;28;20027;-77
2021/06/04 10:23:12;;;;;;;5.82;2.85;;;;;;;26.92;36.70;101168.75;4965303;28;20094;-77
2021/06/04 10:25:59;;;;;;;5.07;3.78;;;;;;;26.84;36.61;101167.41;4981881;28;20499;-76
2021/06/04 10:28:32;;;;;;;5.70;4.20;;;;;;;26.89;35.10;101172.53;4962353;28;20118;-77
2021/06/04 10:31:06;;;;;;;4.80;3.33;;;;;;;26.90;34.97;101168.84;4985864;28;20042;-77
2021/06/04 10:34:20;;;;;;;3.83;2.80;;;;;;;26.82;34.13;101165.75;4986852;28;20137;-77
2021/06/04 10:36:51;;;;;;;4.32;2.80;;;;;;;26.56;36.10;101171.00;4961029;28;20458;-77
2021/06/04 10:39:21;;;;;;;5.72;2.58;;;;;;;26.53;35.57;101171.19;4984460;28;20039;-77
2021/06/04 10:42:10;;;;;;;6.05;2.60;;;;;;;26.33;36.65;101168.81;4982217;28;20131;-77
2021/06/04 10:45:02;;;;;;;4.85;3.40;;;;;;;26.27;36.85;101167.38;4982609;28;20030;-76
2021/06/04 10:47:39;;;;;;;7.35;4.32;;;;;;;26.22;36.04;101167.66;4959524;28;20091;-77
2021/06/04 10:50:12;;;;;;;8.27;5.65;;;;;;;26.28;36.71;101162.81;4978328;28;20030;-77
2021/06/04 10:52:57;;;;;;;7.72;3.20;;;;;;;26.44;37.13;101171.75;4978578;28;20434;-77
2021/06/04 10:55:43;;;;;;;5.63;3.00;;;;;;;26.27;37.61;101163.81;4963016;28;20104;-75
2021/06/04 10:58:26;;;;;;;6.03;4.28;;;;;;;26.15;37.38;101163.59;4979337;28;20398;-76
2021/06/04 11:01:02;;;;;;;9.07;6.88;;;;;;;26.13;37.63;101156.53;4945820;28;20145;-77
2021/06/04 11:03:43;;;;;;;7.07;4.60;;;;;;;26.04;37.39;101157.09;4968155;28;20042;-77
2021/06/04 11:06:18;;;;;;;6.57;5.18;;;;;;;25.97;37.22;101148.50;4946962;28;20042;-77
2021/06/04 11:08:52;;;;;;;5.63;3.58;;;;;;;25.94;37.49;101148.69;4978036;28;20450;-77
2021/06/04 11:11:28;;;;;;;4.72;2.92;;;;;;;25.96;37.45;101149.44;4976489;28;20535;-77
2021/06/04 11:14:04;;;;;;;7.03;4.40;;;;;;;25.82;37.05;101152.09;4984178;28;20126;-77
2021/06/04 11:16:45;;;;;;;7.82;5.38;;;;;;;25.61;38.04;101149.72;4951778;28;20044;-78
2021/06/04 11:19:13;;;;;;;4.53;2.50;;;;;;;25.63;38.25;101150.50;4983927;28;20027;-78
2021/06/04 11:21:46;;;;;;;6.07;3.15;;;;;;;25.51;37.72;101143.09;4984501;28;20392;-77
2021/06/04 11:24:20;;;;;;;4.47;2.75;;;;;;;25.36;38.42;101151.16;4986978;28;20426;-78
2021/06/04 11:26:52;;;;;;;8.18;5.72;;;;;;;25.41;38.16;101155.41;4949568;28;20122;-77
2021/06/04 11:29:20;;;;;;;6.80;4.00;;;;;;;25.43;37.91;101156.19;4987642;28;20042;-77
2021/06/04 11:31:58;;;;;;;6.72;3.33;;;;;;;25.62;37.41;101147.88;4986893;28;20105;-77
2021/06/04 11:34:54;;;;;;;10.90;5.07;;;;;;;25.61;38.15;101155.13;4968261;28;20045;-78
2021/06/04 11:37:31;;;;;;;5.43;3.60;;;;;;;25.82;38.37;101152.09;4994652;28;20038;-78
2021/06/04 11:40:05;;;;;;;6.05;2.72;;;;;;;25.74;38.26;101153.41;4984925;28;20118;-78
2021/06/04 11:42:45;;;;;;;6.55;3.53;;;;;;;25.74;38.24;101149.84;4966680;28;20053;-77
2021/06/04 11:45:11;;;;;;;6.90;4.53;;;;;;;25.88;38.67;101151.75;4989024;28;20113;-77
2021/06/04 11:47:38;;;;;;;11.20;4.80;;;;;;;25.98;38.02;101145.69;4985927;28;20084;-78